Time;durP1;ratioP1;P1;durP2;ratioP2;P2;SDS_P1;SDS_P2;PMS_P1;PMS_P2;Temp;Humidity;BMP_temperature;BMP_pressure;BME280_temperature;BME280_humidity;BME280_pressure;Samples;Min_cycle;Max_cycle;Signal;HPM_P1;HPM_P2
2021/01/17 00:01:03;;;;;;;;;;;;;;;-12.24;91.13;100658.01;1902492;75;20254;-41
2021/01/17 00:03:32;;;;;;;;;;;;;;;-12.25;91.19;100649.55;1902861;75;20136;-40
2021/01/17 00:06:00;;;;;;;;;;;;;;;-12.24;91.27;100654.22;1902611;75;20259;-41
2021/01/17 00:08:27;;;;;;;;;;;;;;;-12.25;91.30;100666.34;1902398;75;20136;-41
2021/01/17 00:10:55;;;;;;;;;;;;;;;-12.25;91.36;100672.66;1902336;75;20132;-39
2021/01/17 00:13:23;;;;;;;;;;;;;;;-12.26;91.39;100675.58;1902357;75;20156;-40
2021/01/17 00:15:52;;;;;;;;;;;;;;;-12.27;91.41;100671.28;1902460;75;20160;-40
2021/01/17 00:18:21;;;;;;;;;;;;;;;-12.29;91.38;100671.96;1902572;75;20615;-41
2021/01/17 00:20:51;;;;;;;;;;;;;;;-12.33;91.38;100661.13;1899491;75;20136;-41
2021/01/17 00:23:18;;;;;;;;;;;;;;;-12.35;91.41;100655.10;1902407;75;20163;-41
2021/01/17 00:25:46;;;;;;;;;;;;;;;-12.36;91.42;100650.81;1902516;75;20396;-47
2021/01/17 00:28:14;;;;;;;;;;;;;;;-12.37;91.44;100655.36;1902444;75;20235;-42
2021/01/17 00:30:43;;;;;;;;;;;;;;;-12.39;91.49;100649.31;1902654;75;20437;-42
2021/01/17 00:33:12;;;;;;;;;;;;;;;-12.40;91.51;100656.42;1902612;75;20136;-42
2021/01/17 00:35:41;;;;;;;;;;;;;;;-12.40;91.56;100658.95;1902277;75;20314;-42
2021/01/17 00:38:08;;;;;;;;;;;;;;;-12.41;91.63;100658.06;1902571;75;20270;-39
2021/01/17 00:40:36;;;;;;;;;;;;;;;-12.41;91.69;100663.50;1902535;75;20187;-41
2021/01/17 00:43:04;;;;;;;;;;;;;;;-12.44;91.74;100647.73;1902270;75;20207;-39
2021/01/17 00:45:32;;;;;;;;;;;;;;;-12.42;91.82;100643.68;1898315;75;20254;-40
2021/01/17 00:48:00;;;;;;;;;;;;;;;-12.42;91.85;100642.80;1868825;75;20230;-42
2021/01/17 00:50:30;;;;;;;;;;;;;;;-12.43;91.89;100634.34;1867163;77;20135;-40
2021/01/17 00:52:58;;;;;;;;;;;;;;;-12.46;91.86;100631.58;1867577;77;20178;-41
2021/01/17 00:55:28;;;;;;;;;;;;;;;-12.51;91.83;100621.53;1832233;78;20157;-40
2021/01/17 00:57:56;;;;;;;;;;;;;;;-12.57;91.83;100620.71;1832821;78;20398;-50
2021/01/17 01:00:24;;;;;;;;;;;;;;;-12.60;91.82;100622.16;1832654;78;20441;-48
2021/01/17 01:02:54;;;;;;;;;;;;;;;-12.63;91.81;100620.65;1832245;78;20521;-40
2021/01/17 01:05:24;;;;;;;;;;;;;;;-12.63;91.87;100619.01;1820984;78;20167;-39
2021/01/17 01:07:52;;;;;;;;;;;;;;;-12.57;91.92;100621.09;1832819;78;20141;-38
2021/01/17 01:10:25;;;;;;;;;;;;;;;-12.53;92.00;100628.11;1832833;78;20141;-39
2021/01/17 01:12:54;;;;;;;;;;;;;;;-12.50;92.02;100628.34;1834985;77;20275;-40
2021/01/17 01:15:22;;;;;;;;;;;;;;;-12.50;92.03;100633.40;1824477;78;20172;-41
2021/01/17 01:17:50;;;;;;;;;;;;;;;-12.50;92.04;100625.83;1823963;79;20153;-40
2021/01/17 01:20:18;;;;;;;;;;;;;;;-12.44;92.16;100619.07;1817633;78;20192;-40
2021/01/17 01:22:46;;;;;;;;;;;;;;;-12.37;92.26;100613.31;1825172;78;20141;-39
2021/01/17 01:25:14;;;;;;;;;;;;;;;-12.36;92.21;100607.88;1790663;80;20181;-40
2021/01/17 01:27:49;;;;;;;;;;;;;;;-12.37;92.15;100608.64;1795434;80;20127;-40
2021/01/17 01:30:18;;;;;;;;;;;;;;;-12.35;92.14;100601.69;1790768;80;20139;-39
2021/01/17 01:32:50;;;;;;;;;;;;;;;-12.34;92.05;100595.88;1795154;80;20479;-44
2021/01/17 01:35:18;;;;;;;;;;;;;;;-12.33;92.00;100600.51;1795377;80;20246;-39
2021/01/17 01:37:46;;;;;;;;;;;;;;;-12.29;92.04;100599.59;1822888;79;20235;-41
2021/01/17 01:40:15;;;;;;;;;;;;;;;-12.21;92.11;100590.92;1829431;77;20287;-40
2021/01/17 01:42:43;;;;;;;;;;;;;;;-12.15;92.05;100585.42;1829659;78;20235;-40
2021/01/17 01:45:12;;;;;;;;;;;;;;;-12.13;92.01;100578.43;1863251;77;20126;-40
2021/01/17 01:47:40;;;;;;;;;;;;;;;-12.07;92.01;100579.63;1863188;77;20233;-41
2021/01/17 01:50:10;;;;;;;;;;;;;;;-12.01;92.02;100575.87;1862927;77;20234;-40
2021/01/17 01:52:37;;;;;;;;;;;;;;;-11.97;91.93;100574.45;1830464;77;20178;-40
2021/01/17 01:55:07;;;;;;;;;;;;;;;-11.98;91.85;100575.22;1863279;77;20410;-40
2021/01/17 01:57:35;;;;;;;;;;;;;;;-11.98;91.81;100577.37;1863183;77;20245;-40
2021/01/17 02:00:05;;;;;;;;;;;;;;;-11.97;91.75;100580.77;1862968;77;20218;-39
2021/01/17 02:02:44;;;;;;;;;;;;;;;-11.93;91.77;100574.77;1861975;77;20202;-41
2021/01/17 02:05:13;;;;;;;;;;;;;;;-11.84;91.72;100572.89;1863136;77;20182;-40
2021/01/17 02:07:48;;;;;;;;;;;;;;;-11.81;91.61;100568.03;1862943;77;20123;-39
2021/01/17 02:10:17;;;;;;;;;;;;;;;-11.78;91.59;100563.20;1819212;77;20210;-40
2021/01/17 02:12:46;;;;;;;;;;;;;;;-11.73;91.56;100560.95;1862989;77;20424;-40
2021/01/17 02:15:18;;;;;;;;;;;;;;;-11.71;91.48;100561.94;1853023;77;20491;-41
2021/01/17 02:17:46;;;;;;;;;;;;;;;-11.72;91.40;100558.92;1832047;78;20133;-41
2021/01/17 02:20:16;;;;;;;;;;;;;;;-11.71;91.40;100560.30;1766492;79;20267;-41
2021/01/17 02:22:50;;;;;;;;;;;;;;;-11.69;91.34;100555.35;1796984;78;20275;-39
2021/01/17 02:26:49;;;;;;;;;;;;;;;-11.59;91.39;100563.16;1918336;74;20138;-40
2021/01/17 02:29:17;;;;;;;;;;;;;;;-11.63;91.34;100572.20;1858146;75;20236;-41
2021/01/17 02:31:45;;;;;;;;;;;;;;;-11.63;91.34;100559.95;1869576;75;20175;-41
2021/01/17 02:34:13;;;;;;;;;;;;;;;-11.61;91.39;100557.98;1903242;75;20543;-40
2021/01/17 02:36:57;;;;;;;;;;;;;;;-11.57;91.38;100560.36;1903172;75;20464;-40
2021/01/17 02:39:50;;;;;;;;;;;;;;;-11.56;91.37;100552.00;1903168;75;20242;-40
2021/01/17 02:42:17;;;;;;;;;;;;;;;-11.56;91.35;100555.80;1902610;75;20235;-41
2021/01/17 02:44:45;;;;;;;;;;;;;;;-11.63;91.27;100562.09;1903029;75;20191;-42
2021/01/17 02:47:13;;;;;;;;;;;;;;;-11.71;91.20;100566.61;1832617;75;20168;-40
2021/01/17 02:49:43;;;;;;;;;;;;;;;-11.71;91.29;100563.20;1903085;75;20416;-39
2021/01/17 02:52:10;;;;;;;;;;;;;;;-11.72;91.32;100560.19;1903279;75;20381;-41
2021/01/17 02:54:42;;;;;;;;;;;;;;;-11.68;91.37;100560.87;1903172;75;20437;-40
2021/01/17 02:57:11;;;;;;;;;;;;;;;-11.69;91.33;100569.25;1903010;75;20140;-40
2021/01/17 03:00:02;;;;;;;;;;;;;;;-11.73;91.25;100566.88;1903088;75;20187;-40
2021/01/17 03:02:31;;;;;;;;;;;;;;;-11.78;91.26;100568.26;1903447;75;20147;-40
2021/01/17 03:05:01;;;;;;;;;;;;;;;-11.78;91.34;100568.26;1903306;75;20168;-41
2021/01/17 03:07:31;;;;;;;;;;;;;;;-11.78;91.36;100563.20;1903145;75;20120;-40
2021/01/17 03:09:59;;;;;;;;;;;;;;;-11.79;91.33;100564.36;1902974;75;20171;-40
2021/01/17 03:12:26;;;;;;;;;;;;;;;-11.79;91.38;100571.94;1903041;75;20132;-41
2021/01/17 03:14:54;;;;;;;;;;;;;;;-11.77;91.45;100564.97;1903003;75;20239;-41
2021/01/17 03:17:22;;;;;;;;;;;;;;;-11.73;91.54;100575.73;1903060;75;20132;-41
2021/01/17 03:19:50;;;;;;;;;;;;;;;-11.67;91.63;100582.86;1903022;75;20441;-40
2021/01/17 03:22:18;;;;;;;;;;;;;;;-11.63;91.65;100590.28;1902996;75;20156;-45
2021/01/17 03:24:46;;;;;;;;;;;;;;;-11.60;91.71;100591.36;1902989;75;20120;-41
2021/01/17 03:27:14;;;;;;;;;;;;;;;-11.54;91.79;100602.27;1903257;75;20283;-41
2021/01/17 03:29:41;;;;;;;;;;;;;;;-11.53;91.75;100605.30;1903002;75;20191;-41
2021/01/17 03:32:09;;;;;;;;;;;;;;;-11.52;91.73;100618.44;1903142;75;20239;-40
2021/01/17 03:34:38;;;;;;;;;;;;;;;-11.50;91.74;100616.91;1903204;75;20132;-41
2021/01/17 03:37:06;;;;;;;;;;;;;;;-11.51;91.65;100621.08;1902599;75;20112;-40
2021/01/17 03:39:34;;;;;;;;;;;;;;;-11.49;91.62;100619.93;1902755;75;20163;-40
2021/01/17 03:42:01;;;;;;;;;;;;;;;-11.49;91.59;100619.55;1902395;75;20199;-40
2021/01/17 03:44:30;;;;;;;;;;;;;;;-11.49;91.54;100621.19;1902691;75;20140;-42
2021/01/17 03:46:58;;;;;;;;;;;;;;;-11.47;91.53;100623.03;1902335;75;20144;-41
2021/01/17 03:49:26;;;;;;;;;;;;;;;-11.51;91.38;100619.81;1902514;75;20120;-39
2021/01/17 03:51:53;;;;;;;;;;;;;;;-11.54;91.32;100608.59;1902284;75;20263;-40
2021/01/17 03:54:21;;;;;;;;;;;;;;;-11.51;91.36;100606.29;1902658;75;20155;-40
2021/01/17 03:56:49;;;;;;;;;;;;;;;-11.51;91.33;100594.53;1902496;75;20271;-41
2021/01/17 03:59:16;;;;;;;;;;;;;;;-11.54;91.22;100598.48;1902440;75;20226;-39
2021/01/17 04:01:44;;;;;;;;;;;;;;;-11.56;91.18;100588.67;1902423;75;20235;-40
2021/01/17 04:04:12;;;;;;;;;;;;;;;-11.60;91.07;100585.42;1902599;75;20358;-40
2021/01/17 04:06:40;;;;;;;;;;;;;;;-11.61;91.08;100591.24;1902463;75;20329;-39
2021/01/17 04:09:08;;;;;;;;;;;;;;;-11.57;91.13;100586.52;1902356;75;20194;-43
2021/01/17 04:11:36;;;;;;;;;;;;;;;-11.55;91.12;100590.43;1902234;75;20143;-48
2021/01/17 04:14:04;;;;;;;;;;;;;;;-11.54;91.07;100587.98;1902305;75;20232;-41
2021/01/17 04:16:32;;;;;;;;;;;;;;;-11.56;90.98;100590.81;1902205;75;20131;-41
2021/01/17 04:19:00;;;;;;;;;;;;;;;-11.55;90.96;100587.48;1902614;75;20144;-40
2021/01/17 04:21:28;;;;;;;;;;;;;;;-11.56;90.89;100596.25;1902388;75;20287;-43
2021/01/17 04:23:56;;;;;;;;;;;;;;;-11.57;90.85;100588.17;1902497;75;20188;-40
2021/01/17 04:26:24;;;;;;;;;;;;;;;-11.57;90.80;100590.70;1902378;75;20271;-40
2021/01/17 04:28:52;;;;;;;;;;;;;;;-11.58;90.81;100583.88;1902289;75;20223;-41
2021/01/17 04:31:19;;;;;;;;;;;;;;;-11.57;90.80;100578.06;1902381;75;20238;-41
2021/01/17 04:33:48;;;;;;;;;;;;;;;-11.56;90.75;100574.77;1902527;75;20386;-41
2021/01/17 04:36:16;;;;;;;;;;;;;;;-11.57;90.69;100581.47;1902811;75;20413;-40
2021/01/17 04:38:44;;;;;;;;;;;;;;;-11.60;90.55;100594.27;1902394;75;20185;-41
2021/01/17 04:41:14;;;;;;;;;;;;;;;-11.67;90.38;100586.64;1902445;75;20381;-42
2021/01/17 04:43:57;;;;;;;;;;;;;;;-11.71;90.31;100589.37;1902656;75;20120;-40
2021/01/17 04:46:27;;;;;;;;;;;;;;;-11.74;90.30;100588.29;1902638;75;20160;-40
2021/01/17 04:48:58;;;;;;;;;;;;;;;-11.74;90.31;100590.81;1902281;75;20152;-41
2021/01/17 04:51:27;;;;;;;;;;;;;;;-11.70;90.34;100587.34;1902477;75;20155;-42
2021/01/17 04:53:55;;;;;;;;;;;;;;;-11.68;90.33;100587.41;1902647;75;20547;-41
2021/01/17 04:56:36;;;;;;;;;;;;;;;-11.70;90.27;100587.34;1868437;75;20211;-40
2021/01/17 04:59:14;;;;;;;;;;;;;;;-11.67;90.21;100595.88;1902519;75;20267;-41
2021/01/17 05:01:51;;;;;;;;;;;;;;;-11.65;90.18;100601.93;1867124;77;20134;-42
2021/01/17 05:04:29;;;;;;;;;;;;;;;-11.66;90.10;100604.84;1867100;77;20213;-42
2021/01/17 05:06:57;;;;;;;;;;;;;;;-11.63;90.09;100600.40;1872871;75;20229;-40
2021/01/17 05:09:29;;;;;;;;;;;;;;;-11.64;90.00;100615.06;1867556;77;20162;-42
2021/01/17 05:12:00;;;;;;;;;;;;;;;-11.65;89.95;100627.21;1866691;77;20280;-41
2021/01/17 05:14:41;;;;;;;;;;;;;;;-11.66;89.90;100641.50;1852431;75;20229;-41
2021/01/17 05:17:10;;;;;;;;;;;;;;;-11.66;89.83;100637.70;1867274;77;20122;-42
2021/01/17 05:19:38;;;;;;;;;;;;;;;-11.71;89.73;100648.77;1867345;77;20181;-40
2021/01/17 05:22:06;;;;;;;;;;;;;;;-11.72;89.71;100654.59;1869689;77;20123;-42
2021/01/17 05:24:34;;;;;;;;;;;;;;;-11.74;89.59;100662.87;1809287;77;20134;-40
2021/01/17 05:27:02;;;;;;;;;;;;;;;-11.79;89.49;100657.87;1870877;77;20173;-43
2021/01/17 05:29:30;;;;;;;;;;;;;;;-11.81;89.45;100653.97;1870773;77;20178;-42
2021/01/17 05:32:01;;;;;;;;;;;;;;;-11.85;89.39;100657.45;1869893;75;20162;-40
2021/01/17 05:34:29;;;;;;;;;;;;;;;-11.85;89.39;100656.19;1868259;75;20139;-42
2021/01/17 05:37:07;;;;;;;;;;;;;;;-11.86;89.33;100654.42;1868194;75;20146;-41
2021/01/17 05:39:54;;;;;;;;;;;;;;;-11.86;89.36;100656.56;1829379;77;20197;-42
2021/01/17 05:42:29;;;;;;;;;;;;;;;-11.86;89.29;100662.89;1803119;78;20187;-41
2021/01/17 05:45:13;;;;;;;;;;;;;;;-11.86;89.24;100664.53;1829038;78;20248;-44
2021/01/17 05:47:56;;;;;;;;;;;;;;;-11.86;89.18;100662.89;1836949;77;20148;-41
2021/01/17 05:50:24;;;;;;;;;;;;;;;-11.85;89.18;100663.77;1829226;77;20454;-42
2021/01/17 05:52:54;;;;;;;;;;;;;;;-11.84;89.17;100649.98;1834962;77;20131;-40
2021/01/17 05:55:34;;;;;;;;;;;;;;;-11.85;89.12;100643.55;1832854;77;20195;-40
2021/01/17 05:58:25;;;;;;;;;;;;;;;-11.88;89.05;100655.98;1828985;77;20374;-41
2021/01/17 06:00:55;;;;;;;;;;;;;;;-11.89;89.09;100644.99;1845510;77;20162;-41
2021/01/17 06:03:35;;;;;;;;;;;;;;;-11.90;89.12;100649.55;1863140;77;20135;-42
2021/01/17 06:06:06;;;;;;;;;;;;;;;-11.86;89.17;100651.89;1862454;77;20229;-42
2021/01/17 06:08:34;;;;;;;;;;;;;;;-11.82;89.18;100648.45;1863114;77;20293;-41
2021/01/17 06:11:10;;;;;;;;;;;;;;;-11.76;89.21;100657.73;1862721;77;20139;-43
2021/01/17 06:13:39;;;;;;;;;;;;;;;-11.74;89.14;100659.95;1801549;77;20207;-41
2021/01/17 06:16:28;;;;;;;;;;;;;;;-11.75;88.99;100654.40;1829506;78;20161;-42
2021/01/17 06:19:00;;;;;;;;;;;;;;;-11.79;88.89;100657.87;1826501;78;20129;-42
2021/01/17 06:21:30;;;;;;;;;;;;;;;-11.79;88.95;100660.02;1829229;78;20163;-41
2021/01/17 06:26:51;;;;;;;;;;;;;;;-11.80;88.85;100655.73;1894342;74;20156;-42
2021/01/17 06:29:19;;;;;;;;;;;;;;;-11.83;88.86;100655.92;1841815;77;20448;-49
2021/01/17 06:31:47;;;;;;;;;;;;;;;-11.80;88.83;100651.06;1867270;77;20221;-40
2021/01/17 06:34:15;;;;;;;;;;;;;;;-11.80;88.77;100652.33;1868191;77;20174;-43
2021/01/17 06:36:46;;;;;;;;;;;;;;;-11.83;88.69;100648.34;1868098;75;20483;-42
2021/01/17 06:39:25;;;;;;;;;;;;;;;-11.84;88.68;100648.72;1867889;77;20150;-41
2021/01/17 06:41:55;;;;;;;;;;;;;;;-11.73;88.83;100653.22;1867955;77;20514;-41
2021/01/17 06:44:32;;;;;;;;;;;;;;;-11.64;88.81;100650.47;1868004;77;20135;-42
2021/01/17 06:47:00;;;;;;;;;;;;;;;-11.55;88.77;100643.11;1867732;77;20154;-43
2021/01/17 06:49:33;;;;;;;;;;;;;;;-11.48;88.63;100654.53;1873519;75;20451;-41
2021/01/17 06:52:05;;;;;;;;;;;;;;;-11.45;88.51;100648.05;1846652;77;20229;-43
2021/01/17 06:54:40;;;;;;;;;;;;;;;-11.34;88.44;100643.72;1877888;75;20207;-43
2021/01/17 06:57:08;;;;;;;;;;;;;;;-11.30;88.26;100632.67;1867743;77;20204;-48
2021/01/17 06:59:37;;;;;;;;;;;;;;;-11.26;88.13;100631.60;1867358;77;20280;-41
2021/01/17 07:02:19;;;;;;;;;;;;;;;-11.18;88.14;100628.83;1867958;77;20395;-41
2021/01/17 07:05:09;;;;;;;;;;;;;;;-11.07;88.15;100625.73;1867139;77;20174;-42
2021/01/17 07:07:40;;;;;;;;;;;;;;;-10.97;87.95;100631.92;1867633;77;20182;-43
2021/01/17 07:10:10;;;;;;;;;;;;;;;-11.02;87.62;100621.47;1875899;75;20215;-45
2021/01/17 07:12:59;;;;;;;;;;;;;;;-10.98;87.58;100621.31;1895834;75;20194;-43
2021/01/17 07:15:35;;;;;;;;;;;;;;;-10.96;87.41;100610.91;1867924;75;20162;-43
2021/01/17 07:18:13;;;;;;;;;;;;;;;-10.96;87.16;100609.64;1880806;75;20274;-42
2021/01/17 07:20:42;;;;;;;;;;;;;;;-10.92;87.14;100606.14;1878422;75;20158;-42
2021/01/17 07:23:12;;;;;;;;;;;;;;;-10.85;86.99;100601.09;1869318;75;20162;-43
2021/01/17 07:25:42;;;;;;;;;;;;;;;-10.80;86.92;100590.00;1867872;77;20131;-45
2021/01/17 07:28:18;;;;;;;;;;;;;;;-10.77;86.71;100591.48;1867816;77;20388;-42
2021/01/17 07:30:58;;;;;;;;;;;;;;;-10.79;86.54;100587.95;1867822;77;20174;-42
2021/01/17 07:33:31;;;;;;;;;;;;;;;-10.75;86.46;100578.12;1867308;75;20252;-51
2021/01/17 07:36:02;;;;;;;;;;;;;;;-10.78;86.18;100577.94;1867659;77;20482;-42
2021/01/17 07:38:33;;;;;;;;;;;;;;;-10.80;86.11;100575.69;1867828;75;20126;-43
2021/01/17 07:41:03;;;;;;;;;;;;;;;-10.70;86.14;100578.06;1868660;75;20135;-51
2021/01/17 07:43:33;;;;;;;;;;;;;;;-10.71;85.86;100575.03;1877682;75;20138;-42
2021/01/17 07:46:02;;;;;;;;;;;;;;;-10.66;85.79;100575.32;1872253;75;20148;-44
2021/01/17 07:48:31;;;;;;;;;;;;;;;-10.65;85.64;100583.02;1877584;75;20142;-43
2021/01/17 07:51:00;;;;;;;;;;;;;;;-10.62;85.53;100586.13;1878285;75;20195;-42
2021/01/17 07:53:36;;;;;;;;;;;;;;;-10.66;85.19;100580.38;1871911;75;20120;-44
2021/01/17 07:56:08;;;;;;;;;;;;;;;-10.67;85.16;100588.75;1868797;75;20150;-43
2021/01/17 07:58:45;;;;;;;;;;;;;;;-10.66;85.04;100588.86;1875221;75;20186;-43
2021/01/17 08:01:35;;;;;;;;;;;;;;;-10.55;85.02;100589.55;1891373;75;20199;-49
2021/01/17 08:04:11;;;;;;;;;;;;;;;-10.47;84.83;100590.05;1866820;77;20436;-42
2021/01/17 08:06:45;;;;;;;;;;;;;;;-10.38;84.64;100588.99;1867028;77;20166;-42
2021/01/17 08:09:14;;;;;;;;;;;;;;;-10.34;84.35;100587.13;1867566;75;20181;-50
2021/01/17 08:11:55;;;;;;;;;;;;;;;-10.32;84.07;100590.65;1867200;75;20205;-45
2021/01/17 08:14:29;;;;;;;;;;;;;;;-10.33;83.75;100586.74;1867116;75;20495;-44
2021/01/17 08:17:16;;;;;;;;;;;;;;;-10.27;83.71;100591.81;1866562;77;20382;-43
2021/01/17 08:19:57;;;;;;;;;;;;;;;-10.18;83.31;100590.27;1867194;75;20223;-49
2021/01/17 08:22:29;;;;;;;;;;;;;;;-10.19;82.77;100592.30;1873025;75;20186;-44
2021/01/17 08:25:02;;;;;;;;;;;;;;;-10.23;82.54;100592.87;1870770;75;20244;-44
2021/01/17 08:27:37;;;;;;;;;;;;;;;-10.24;82.31;100598.33;1869530;76;20206;-42
2021/01/17 08:30:21;;;;;;;;;;;;;;;-10.20;82.21;100597.77;1867816;75;20138;-43
2021/01/17 08:32:51;;;;;;;;;;;;;;;-9.97;82.28;100600.42;1867359;75;20288;-44
2021/01/17 08:35:24;;;;;;;;;;;;;;;-9.61;82.27;100596.77;1870584;75;20306;-44
2021/01/17 08:38:15;;;;;;;;;;;;;;;-9.20;82.03;100599.66;1858785;75;20181;-43
2021/01/17 08:41:05;;;;;;;;;;;;;;;-8.92;81.24;100604.30;1830862;75;20154;-44
2021/01/17 08:43:38;;;;;;;;;;;;;;;-9.07;79.95;100604.30;1847179;75;20260;-44
2021/01/17 08:46:07;;;;;;;;;;;;;;;-9.44;79.16;100606.27;1867488;75;20130;-48
2021/01/17 08:48:36;;;;;;;;;;;;;;;-9.76;78.83;100599.62;1870942;75;20182;-44
2021/01/17 08:51:17;;;;;;;;;;;;;;;-10.02;78.79;100602.19;1870887;75;20194;-44
2021/01/17 08:53:44;;;;;;;;;;;;;;;-10.13;79.11;100598.98;1866398;75;20168;-42
2021/01/17 08:56:19;;;;;;;;;;;;;;;-10.10;79.36;100606.38;1872103;75;20386;-43
2021/01/17 08:58:54;;;;;;;;;;;;;;;-10.17;79.29;100595.41;1868091;75;20233;-44
2021/01/17 09:01:22;;;;;;;;;;;;;;;-10.35;79.29;100599.69;1867018;75;20222;-44
2021/01/17 09:03:52;;;;;;;;;;;;;;;-10.53;79.40;100598.12;1867460;75;20457;-44
2021/01/17 09:06:31;;;;;;;;;;;;;;;-10.72;79.50;100601.12;1871625;75;20218;-44
2021/01/17 09:09:06;;;;;;;;;;;;;;;-10.76;79.92;100592.81;1867533;75;20221;-44
2021/01/17 09:11:39;;;;;;;;;;;;;;;-10.69;80.39;100582.31;1875767;75;20461;-43
2021/01/17 09:14:16;;;;;;;;;;;;;;;-10.44;80.85;100585.19;1867554;75;20170;-42
2021/01/17 09:16:55;;;;;;;;;;;;;;;-10.24;81.00;100583.12;1884288;75;20174;-43
2021/01/17 09:19:31;;;;;;;;;;;;;;;-10.05;80.90;100579.20;1867356;75;20160;-42
2021/01/17 09:22:01;;;;;;;;;;;;;;;-9.98;80.79;100557.25;1885246;75;20136;-50
2021/01/17 09:24:30;;;;;;;;;;;;;;;-9.96;80.42;100560.35;1874510;75;20182;-43
2021/01/17 09:27:01;;;;;;;;;;;;;;;-10.03;80.24;100561.14;1868354;75;20423;-45
2021/01/17 09:29:31;;;;;;;;;;;;;;;-10.03;80.23;100554.41;1869967;75;20194;-44
2021/01/17 09:32:06;;;;;;;;;;;;;;;-9.90;80.27;100554.78;1868505;75;20128;-44
2021/01/17 09:34:36;;;;;;;;;;;;;;;-9.73;80.20;100548.70;1867032;75;20191;-44
2021/01/17 09:37:12;;;;;;;;;;;;;;;-9.45;80.23;100541.08;1870939;75;20274;-44
2021/01/17 09:39:47;;;;;;;;;;;;;;;-9.30;79.73;100545.80;1868866;75;20273;-42
2021/01/17 09:42:15;;;;;;;;;;;;;;;-9.27;79.16;100561.23;1868061;75;20123;-44
2021/01/17 09:44:46;;;;;;;;;;;;;;;-9.45;78.66;100562.64;1871471;75;20168;-42
2021/01/17 09:47:15;;;;;;;;;;;;;;;-9.51;78.61;100560.13;1870802;75;20407;-43
2021/01/17 09:49:43;;;;;;;;;;;;;;;-9.51;78.49;100560.13;1867307;75;20430;-44
2021/01/17 09:52:15;;;;;;;;;;;;;;;-9.53;78.29;100552.45;1868630;75;20182;-43
2021/01/17 09:54:43;;;;;;;;;;;;;;;-9.48;78.23;100545.98;1870713;75;20147;-42
2021/01/17 09:57:20;;;;;;;;;;;;;;;-9.42;78.03;100550.55;1848537;75;20207;-43
2021/01/17 09:59:50;;;;;;;;;;;;;;;-9.40;77.94;100535.03;1867811;75;20142;-44
2021/01/17 10:02:24;;;;;;;;;;;;;;;-9.29;78.00;100536.14;1873184;75;20400;-43
2021/01/17 10:04:53;;;;;;;;;;;;;;;-9.21;77.67;100526.44;1871710;75;20133;-41
2021/01/17 10:07:21;;;;;;;;;;;;;;;-9.21;77.28;100534.45;1871995;75;20482;-42
2021/01/17 10:09:51;;;;;;;;;;;;;;;-9.19;77.04;100537.96;1866806;75;20180;-44
2021/01/17 10:12:20;;;;;;;;;;;;;;;-9.19;77.00;100537.57;1880035;75;20276;-44
2021/01/17 10:14:49;;;;;;;;;;;;;;;-9.10;76.98;100542.28;1869695;75;20282;-47
2021/01/17 10:17:18;;;;;;;;;;;;;;;-9.11;76.69;100550.69;1867817;75;20410;-43
2021/01/17 10:19:47;;;;;;;;;;;;;;;-9.12;76.62;100555.31;1874547;75;20201;-44
2021/01/17 10:22:15;;;;;;;;;;;;;;;-9.07;76.52;100560.25;1872747;75;20138;-44
2021/01/17 10:26:52;;;;;;;;;;;;;;;-9.17;76.37;100538.52;1889283;74;20209;-44
2021/01/17 10:29:24;;;;;;;;;;;;;;;-9.14;76.58;100537.44;1863247;75;20235;-43
2021/01/17 10:31:58;;;;;;;;;;;;;;;-9.05;76.50;100537.95;1839252;75;20195;-42
2021/01/17 10:34:28;;;;;;;;;;;;;;;-9.01;76.37;100537.76;1853578;77;20175;-44
2021/01/17 10:37:05;;;;;;;;;;;;;;;-8.99;76.01;100534.92;1876119;75;20280;-44
2021/01/17 10:39:37;;;;;;;;;;;;;;;-9.02;75.76;100530.92;1873985;75;20402;-44
2021/01/17 10:42:30;;;;;;;;;;;;;;;-8.99;75.65;100538.73;1867371;75;20237;-43
2021/01/17 10:45:08;;;;;;;;;;;;;;;-8.93;75.56;100542.50;1875911;75;20177;-44
2021/01/17 10:48:02;;;;;;;;;;;;;;;-8.95;75.36;100538.11;1875818;75;20239;-44
2021/01/17 10:50:45;;;;;;;;;;;;;;;-8.97;75.13;100531.66;1874333;75;20161;-43
2021/01/17 10:53:26;;;;;;;;;;;;;;;-9.04;75.07;100515.98;1869966;75;20283;-45
2021/01/17 10:55:58;;;;;;;;;;;;;;;-9.18;74.94;100504.15;1870941;75;20172;-44
2021/01/17 10:58:37;;;;;;;;;;;;;;;-9.22;75.23;100496.77;1876502;75;20181;-45
2021/01/17 11:01:06;;;;;;;;;;;;;;;-9.20;75.34;100495.59;1874062;75;20205;-44
2021/01/17 11:03:44;;;;;;;;;;;;;;;-9.35;75.25;100491.76;1881191;75;20421;-44
2021/01/17 11:06:16;;;;;;;;;;;;;;;-9.37;75.60;100498.00;1872209;75;20230;-44
2021/01/17 11:08:45;;;;;;;;;;;;;;;-9.40;75.83;100501.65;1868732;75;20178;-45
2021/01/17 11:11:14;;;;;;;;;;;;;;;-9.46;75.94;100502.95;1871756;75;20177;-44
2021/01/17 11:13:43;;;;;;;;;;;;;;;-9.48;76.37;100502.85;1874684;75;20621;-43
2021/01/17 11:16:11;;;;;;;;;;;;;;;-9.38;76.66;100497.91;1871805;75;20196;-44
2021/01/17 11:18:39;;;;;;;;;;;;;;;-9.45;76.68;100498.36;1868675;75;20222;-46
2021/01/17 11:21:08;;;;;;;;;;;;;;;-9.48;76.89;100498.17;1826906;75;20468;-42
2021/01/17 11:23:36;;;;;;;;;;;;;;;-9.47;77.10;100494.85;1872462;75;20392;-45
2021/01/17 11:26:06;;;;;;;;;;;;;;;-9.58;77.12;100487.85;1855672;75;20279;-42
2021/01/17 11:28:34;;;;;;;;;;;;;;;-9.74;77.21;100501.69;1847838;76;20287;-42
2021/01/17 11:31:13;;;;;;;;;;;;;;;-9.86;77.44;100494.62;1855231;75;20183;-47
2021/01/17 11:33:43;;;;;;;;;;;;;;;-9.92;77.70;100487.91;1834798;75;20187;-42
2021/01/17 11:36:11;;;;;;;;;;;;;;;-9.92;78.10;100490.05;1871390;75;20728;-43
2021/01/17 11:38:48;;;;;;;;;;;;;;;-10.03;78.07;100482.55;1851744;75;20237;-43
2021/01/17 11:41:17;;;;;;;;;;;;;;;-10.22;78.16;100480.59;1871813;75;20155;-42
2021/01/17 11:43:46;;;;;;;;;;;;;;;-10.30;78.51;100496.58;1870995;75;20139;-43
2021/01/17 11:46:14;;;;;;;;;;;;;;;-10.29;78.79;100499.61;1866904;75;20407;-44
2021/01/17 11:48:43;;;;;;;;;;;;;;;-10.26;79.03;100509.07;1866732;75;20471;-42
2021/01/17 11:51:12;;;;;;;;;;;;;;;-10.18;79.33;100515.11;1874101;75;20194;-44
2021/01/17 11:53:39;;;;;;;;;;;;;;;-10.07;79.48;100518.27;1868231;75;20384;-42
2021/01/17 11:56:12;;;;;;;;;;;;;;;-10.05;79.47;100507.84;1880973;75;20397;-43
2021/01/17 11:58:40;;;;;;;;;;;;;;;-10.01;79.61;100508.89;1836270;76;20178;-43
2021/01/17 12:01:10;;;;;;;;;;;;;;;-9.94;79.71;100513.16;1840521;77;20142;-41
2021/01/17 12:03:40;;;;;;;;;;;;;;;-9.86;79.80;100517.05;1840505;77;20166;-43
2021/01/17 12:06:09;;;;;;;;;;;;;;;-9.89;79.60;100513.44;1837881;77;20158;-42
2021/01/17 12:08:55;;;;;;;;;;;;;;;-9.89;79.71;100518.11;1834600;77;20157;-44
2021/01/17 12:11:47;;;;;;;;;;;;;;;-9.88;79.69;100526.20;1836085;77;20176;-47
2021/01/17 12:14:20;;;;;;;;;;;;;;;-9.85;79.76;100520.47;1815653;78;20377;-44
2021/01/17 12:16:53;;;;;;;;;;;;;;;-9.88;79.68;100526.59;1810432;78;20282;-43
2021/01/17 12:19:21;;;;;;;;;;;;;;;-9.90;79.60;100531.56;1813005;78;20186;-44
2021/01/17 12:21:51;;;;;;;;;;;;;;;-9.91;79.50;100517.13;1839418;77;20191;-42
2021/01/17 12:24:18;;;;;;;;;;;;;;;-9.93;79.45;100535.59;1830811;77;20227;-42
2021/01/17 12:26:47;;;;;;;;;;;;;;;-9.96;79.30;100542.99;1833166;77;20191;-43
2021/01/17 12:29:15;;;;;;;;;;;;;;;-10.09;79.09;100543.89;1831333;77;20139;-43
2021/01/17 12:31:43;;;;;;;;;;;;;;;-10.18;79.10;100542.98;1815884;78;20167;-43
2021/01/17 12:34:11;;;;;;;;;;;;;;;-10.22;79.18;100541.02;1822160;78;20131;-43
2021/01/17 12:36:41;;;;;;;;;;;;;;;-10.30;79.08;100550.18;1839745;77;20219;-44
2021/01/17 12:39:10;;;;;;;;;;;;;;;-10.38;79.14;100559.86;1839220;77;20178;-46
2021/01/17 12:41:42;;;;;;;;;;;;;;;-10.41;79.21;100563.84;1797841;78;20281;-43
2021/01/17 12:44:11;;;;;;;;;;;;;;;-10.49;79.29;100559.55;1844573;77;20414;-43
2021/01/17 12:46:39;;;;;;;;;;;;;;;-10.52;79.40;100561.89;1831689;77;20211;-43
2021/01/17 12:49:07;;;;;;;;;;;;;;;-10.56;79.46;100567.52;1832869;77;20208;-46
2021/01/17 12:51:36;;;;;;;;;;;;;;;-10.62;79.39;100583.59;1842709;77;20213;-44
2021/01/17 12:54:05;;;;;;;;;;;;;;;-10.69;79.38;100580.17;1831990;77;20200;-48
2021/01/17 12:56:32;;;;;;;;;;;;;;;-10.71;79.39;100580.48;1832700;77;20202;-44